createdAt,value
2022-07-26T00:00:49.289Z,69.30
2022-07-26T00:03:53.217Z,70.10
2022-07-26T00:06:56.646Z,69.50
2022-07-26T00:10:00.084Z,69.50
2022-07-26T00:13:04.921Z,70.30
2022-07-26T00:16:09.076Z,69.20
2022-07-26T00:19:12.472Z,69.80
2022-07-26T00:22:33.826Z,70.00
2022-07-26T00:25:37.635Z,70.60
2022-07-26T00:28:42.436Z,70.20
2022-07-26T00:31:45.926Z,70.90
2022-07-26T00:34:49.527Z,70.20
2022-07-26T00:37:52.825Z,70.30
2022-07-26T00:40:56.299Z,70.30
2022-07-26T00:44:01.817Z,70.30
2022-07-26T00:47:05.540Z,70.60
2022-07-26T00:50:13.585Z,70.90
2022-07-26T00:53:20.443Z,70.80
2022-07-26T00:56:24.120Z,70.60
2022-07-26T00:59:29.988Z,70.70
2022-07-26T01:02:33.492Z,71.70
2022-07-26T01:05:36.984Z,70.80
2022-07-26T01:08:40.377Z,71.10
2022-07-26T01:11:44.111Z,71.20
2022-07-26T01:14:49.076Z,70.20
2022-07-26T01:17:55.603Z,71.20
2022-07-26T01:21:13.239Z,71.10
2022-07-26T01:24:20.304Z,71.20
2022-07-26T01:27:23.583Z,71.30
2022-07-26T01:30:27.168Z,71.10
2022-07-26T01:33:30.595Z,71.10
2022-07-26T01:36:34.177Z,71.40
2022-07-26T01:39:38.940Z,71.00
2022-07-26T01:42:42.608Z,71.60
2022-07-26T01:45:46.516Z,71.40
2022-07-26T01:48:49.917Z,71.40
2022-07-26T01:51:53.316Z,71.30
2022-07-26T01:54:57.996Z,71.40
2022-07-26T01:58:01.380Z,71.70
2022-07-26T02:01:04.816Z,71.90
2022-07-26T02:04:08.915Z,71.70
2022-07-26T02:07:13.401Z,72.10
2022-07-26T02:10:19.039Z,71.90
2022-07-26T02:13:22.350Z,72.30
2022-07-26T02:16:25.723Z,72.10
2022-07-26T02:19:30.314Z,72.10
2022-07-26T02:22:33.665Z,71.80
2022-07-26T02:25:38.344Z,72.10
2022-07-26T02:28:41.916Z,72.10
2022-07-26T02:31:48.290Z,71.90
2022-07-26T02:34:52.433Z,72.00
2022-07-26T02:37:55.806Z,72.00
2022-07-26T02:41:00.665Z,72.20
2022-07-26T02:44:04.121Z,72.10
2022-07-26T02:47:07.710Z,72.00
2022-07-26T02:50:11.458Z,71.80
2022-07-26T02:53:17.177Z,72.20
2022-07-26T02:56:22.538Z,71.60
2022-07-26T02:59:26.050Z,71.60
2022-07-26T03:02:30.408Z,70.80
2022-07-26T03:05:33.957Z,71.60
2022-07-26T03:08:37.199Z,71.50
2022-07-26T03:11:41.881Z,71.40
2022-07-26T03:14:45.760Z,71.40
2022-07-26T03:17:50.065Z,71.20
2022-07-26T03:20:53.417Z,71.20
2022-07-26T03:23:56.776Z,71.50
2022-07-26T03:27:01.560Z,71.20
2022-07-26T03:30:06.167Z,71.10
2022-07-26T03:33:09.498Z,71.20
2022-07-26T03:36:15.594Z,71.10
2022-07-26T03:39:19.486Z,71.30
2022-07-26T03:42:24.458Z,71.10
2022-07-26T03:45:28.314Z,71.00
2022-07-26T03:48:32.621Z,71.10
2022-07-26T03:51:38.600Z,72.40
2022-07-26T03:54:42.428Z,72.20
2022-07-26T03:57:46.183Z,70.30
2022-07-26T04:00:49.559Z,71.10
2022-07-26T04:03:53.313Z,70.90
2022-07-26T04:06:57.621Z,70.80
2022-07-26T04:10:08.354Z,69.80
2022-07-26T04:13:12.998Z,70.80
2022-07-26T04:16:16.497Z,70.80
2022-07-26T04:19:19.898Z,70.80
2022-07-26T04:22:23.251Z,71.70
2022-07-26T04:25:26.946Z,70.90
2022-07-26T04:28:44.664Z,70.90
2022-07-26T04:31:47.911Z,71.00
2022-07-26T04:34:51.371Z,71.10
2022-07-26T04:37:54.745Z,71.20
2022-07-26T04:40:58.619Z,71.10
2022-07-26T04:44:03.344Z,71.10
2022-07-26T04:47:07.076Z,71.10
2022-07-26T04:50:12.238Z,71.00
2022-07-26T04:53:18.425Z,70.20
2022-07-26T04:56:21.760Z,70.60
2022-07-26T04:59:26.556Z,70.80
2022-07-26T05:02:30.413Z,71.70
2022-07-26T05:05:34.912Z,71.20
2022-07-26T05:08:38.215Z,70.00
2022-07-26T05:11:41.544Z,69.30
2022-07-26T05:14:46.333Z,68.70
2022-07-26T05:17:49.688Z,68.40
2022-07-26T05:20:53.573Z,69.60
2022-07-26T05:23:57.338Z,68.40
2022-07-26T05:27:00.680Z,68.10
2022-07-26T05:30:06.078Z,68.30
2022-07-26T05:33:09.723Z,68.20
2022-07-26T05:36:13.984Z,68.80
2022-07-26T05:39:17.335Z,69.00
2022-07-26T05:42:20.771Z,68.30
2022-07-26T05:45:25.566Z,68.60
2022-07-26T05:48:28.937Z,68.50
2022-07-26T05:51:33.823Z,68.90
2022-07-26T05:54:38.056Z,69.30
2022-07-26T05:57:42.032Z,69.30
2022-07-26T06:00:48.613Z,70.50
2022-07-26T06:03:52.122Z,70.30
2022-07-26T06:06:56.305Z,70.00
2022-07-26T06:09:59.635Z,71.10
2022-07-26T06:13:02.939Z,70.50
2022-07-26T06:16:08.672Z,70.00
2022-07-26T06:19:12.365Z,70.50
2022-07-26T06:22:15.892Z,70.50
2022-07-26T06:25:19.658Z,70.80
2022-07-26T06:28:23.167Z,71.00
2022-07-26T06:31:27.984Z,70.90
2022-07-26T06:34:31.451Z,70.90
2022-07-26T06:37:38.311Z,69.30
2022-07-26T06:40:42.346Z,68.50
2022-07-26T06:43:45.462Z,69.20
2022-07-26T06:46:50.218Z,69.50
2022-07-26T06:49:54.600Z,68.80
2022-07-26T06:52:57.956Z,70.10
2022-07-26T06:56:01.357Z,70.20
2022-07-26T06:59:09.303Z,70.60
2022-07-26T07:02:14.293Z,69.60
2022-07-26T07:05:17.896Z,68.60
2022-07-26T07:08:23.262Z,68.80
2022-07-26T07:11:26.796Z,69.00
2022-07-26T07:14:32.133Z,69.20
2022-07-26T07:17:36.924Z,70.50
2022-07-26T07:20:40.758Z,70.60
2022-07-26T07:23:46.325Z,69.60
2022-07-26T07:26:49.649Z,69.70
2022-07-26T07:29:54.623Z,68.60
2022-07-26T07:33:00.815Z,68.00
2022-07-26T07:36:07.216Z,66.80
2022-07-26T07:39:15.548Z,65.50
2022-07-26T07:42:23.429Z,63.50
2022-07-26T07:45:27.003Z,61.50
2022-07-26T07:48:32.116Z,60.30
2022-07-26T07:51:36.359Z,58.70
2022-07-26T07:54:40.066Z,56.90
2022-07-26T07:57:46.499Z,55.70
2022-07-26T08:00:50.928Z,56.30
2022-07-26T08:03:55.859Z,55.90
2022-07-26T08:06:59.312Z,55.90
2022-07-26T08:10:02.837Z,56.40
2022-07-26T08:13:06.342Z,55.00
2022-07-26T08:16:09.998Z,54.90
2022-07-26T08:19:15.716Z,52.60
2022-07-26T08:22:19.412Z,54.20
2022-07-26T08:25:24.528Z,53.70
2022-07-26T08:31:53.041Z,53.40
2022-07-26T08:35:17.934Z,52.70
2022-07-26T08:38:21.185Z,52.60
2022-07-26T08:41:25.014Z,52.00
2022-07-26T08:44:29.092Z,51.50
2022-07-26T08:47:38.085Z,52.30
2022-07-26T08:50:49.006Z,52.90
2022-07-26T08:54:04.198Z,52.90
2022-07-26T08:57:08.960Z,53.30
2022-07-26T09:00:18.096Z,53.10
2022-07-26T09:03:27.004Z,53.70
2022-07-26T09:06:31.935Z,52.70
2022-07-26T09:09:38.915Z,51.90
2022-07-26T09:12:44.087Z,50.90
2022-07-26T09:15:47.604Z,50.30
2022-07-26T09:18:51.070Z,51.30
2022-07-26T09:21:57.903Z,51.40
2022-07-26T09:25:01.669Z,51.90
2022-07-26T09:28:22.997Z,52.90
2022-07-26T09:31:26.337Z,52.70
2022-07-26T09:34:29.968Z,52.80
2022-07-26T09:37:40.660Z,52.90
2022-07-26T09:40:50.366Z,51.20
2022-07-26T09:43:58.736Z,51.70
2022-07-26T09:47:02.251Z,51.50
2022-07-26T09:50:16.798Z,51.10
2022-07-26T09:53:23.559Z,49.60
2022-07-26T09:56:44.660Z,49.10
2022-07-26T09:59:49.848Z,49.30
2022-07-26T10:02:53.947Z,49.50
2022-07-26T10:05:58.574Z,49.70
2022-07-26T10:09:06.016Z,50.00
2022-07-26T10:12:14.473Z,49.70
2022-07-26T10:15:41.534Z,49.40
2022-07-26T10:18:50.124Z,48.30
2022-07-26T10:22:24.674Z,48.90
2022-07-26T10:25:49.797Z,47.00
2022-07-26T10:28:53.100Z,46.90
2022-07-26T10:32:21.482Z,47.80
2022-07-26T10:35:40.865Z,46.80
2022-07-26T10:39:04.421Z,46.10
2022-07-26T10:42:12.178Z,45.90
2022-07-26T10:45:23.051Z,44.50
2022-07-26T10:48:26.562Z,43.70
2022-07-26T10:51:34.803Z,44.50
2022-07-26T10:55:18.573Z,43.90
2022-07-26T10:58:24.494Z,42.20
2022-07-26T11:01:35.654Z,43.70
2022-07-26T11:04:39.298Z,42.50
2022-07-26T11:07:56.798Z,44.30
2022-07-26T11:11:00.159Z,43.00
2022-07-26T11:14:11.765Z,43.60
2022-07-26T11:17:27.390Z,42.60
2022-07-26T11:20:30.912Z,42.60
2022-07-26T11:23:37.055Z,42.60
2022-07-26T11:26:44.681Z,41.30
2022-07-26T11:29:50.258Z,42.00
2022-07-26T11:32:54.713Z,41.50
2022-07-26T11:35:58.062Z,42.50
2022-07-26T11:39:02.819Z,41.70
2022-07-26T11:42:09.516Z,42.10
2022-07-26T11:45:14.819Z,42.00
2022-07-26T11:48:20.349Z,41.60
2022-07-26T11:51:26.684Z,42.20
2022-07-26T11:54:32.937Z,42.30
2022-07-26T11:57:36.464Z,42.60
2022-07-26T12:00:41.359Z,43.10
2022-07-26T12:03:47.391Z,43.30
2022-07-26T12:06:51.560Z,43.60
2022-07-26T12:09:55.165Z,43.30
2022-07-26T12:13:13.309Z,43.20
2022-07-26T12:19:56.569Z,42.70
2022-07-26T12:23:05.919Z,43.50
2022-07-26T12:26:24.608Z,43.50
2022-07-26T12:29:34.195Z,42.90
2022-07-26T12:32:41.179Z,43.40
2022-07-26T12:35:45.923Z,43.80
2022-07-26T12:38:49.534Z,45.40
2022-07-26T12:41:54.119Z,44.60
2022-07-26T12:44:59.234Z,44.40
2022-07-26T12:48:07.801Z,44.10
2022-07-26T12:51:13.002Z,43.60
2022-07-26T12:54:16.675Z,43.30
2022-07-26T12:57:21.074Z,43.30
2022-07-26T13:00:25.318Z,44.00
2022-07-26T13:03:29.692Z,43.40
2022-07-26T13:06:34.890Z,43.90
2022-07-26T13:09:38.815Z,44.30
2022-07-26T13:12:42.813Z,44.10
2022-07-26T13:15:48.120Z,43.90
2022-07-26T13:18:52.136Z,43.90
2022-07-26T13:21:57.413Z,43.70
2022-07-26T13:25:00.841Z,43.50
2022-07-26T13:28:11.749Z,44.50
2022-07-26T13:31:16.370Z,45.00
2022-07-26T13:34:20.084Z,44.30
2022-07-26T13:37:25.613Z,43.80
2022-07-26T13:40:31.847Z,43.40
2022-07-26T13:43:37.011Z,43.10
2022-07-26T13:46:40.442Z,43.20
2022-07-26T13:49:44.454Z,43.50
2022-07-26T13:52:49.712Z,43.40
2022-07-26T13:55:53.320Z,43.90
2022-07-26T13:58:56.775Z,44.20
2022-07-26T14:02:00.329Z,44.30
2022-07-26T14:05:03.938Z,44.10
2022-07-26T14:08:08.939Z,44.10
2022-07-26T14:11:12.348Z,43.70
2022-07-26T14:14:18.570Z,43.60
2022-07-26T14:17:22.824Z,43.50
2022-07-26T14:20:26.517Z,43.70
2022-07-26T14:23:32.750Z,43.10
2022-07-26T14:26:36.311Z,42.90
2022-07-26T14:29:40.813Z,43.20
2022-07-26T14:32:44.513Z,42.90
2022-07-26T14:35:50.108Z,42.90
2022-07-26T14:38:56.646Z,41.80
2022-07-26T14:41:59.944Z,41.90
2022-07-26T14:45:03.430Z,42.20
2022-07-26T14:48:07.674Z,42.00
2022-07-26T14:51:11.818Z,42.10
2022-07-26T14:54:18.119Z,42.20
2022-07-26T14:57:21.458Z,42.30
2022-07-26T15:00:24.759Z,42.30
2022-07-26T15:03:30.475Z,42.70
2022-07-26T15:06:34.382Z,42.40
2022-07-26T15:09:39.320Z,42.60
2022-07-26T15:12:43.455Z,43.50
2022-07-26T15:15:47.160Z,42.90
2022-07-26T15:18:51.561Z,43.40
2022-07-26T15:21:56.063Z,43.40
2022-07-26T15:25:01.337Z,43.20
2022-07-26T15:28:06.010Z,43.40
2022-07-26T15:31:14.261Z,44.20
2022-07-26T15:34:18.069Z,43.80
2022-07-26T15:37:21.506Z,43.80
2022-07-26T15:40:26.682Z,43.40
2022-07-26T15:43:44.211Z,43.10
2022-07-26T15:46:52.388Z,43.40
2022-07-26T15:49:56.142Z,43.90
2022-07-26T15:52:59.802Z,43.80
2022-07-26T15:56:04.817Z,43.60
2022-07-26T15:59:08.566Z,43.30
2022-07-26T16:02:12.387Z,43.60
2022-07-26T16:05:15.879Z,43.80
2022-07-26T16:08:19.215Z,43.80
2022-07-26T16:11:24.079Z,44.10
2022-07-26T16:14:27.854Z,44.40
2022-07-26T16:17:31.428Z,44.60
2022-07-26T16:20:35.458Z,45.10
2022-07-26T16:23:38.758Z,45.30
2022-07-26T16:26:43.824Z,44.90
2022-07-26T16:29:52.167Z,46.10
2022-07-26T16:32:55.907Z,45.80
2022-07-26T16:36:02.945Z,46.10
2022-07-26T16:39:09.974Z,45.70
2022-07-26T16:42:15.183Z,45.40
2022-07-26T16:45:18.726Z,45.20
2022-07-26T16:48:22.106Z,45.00
2022-07-26T16:51:25.742Z,45.20
2022-07-26T16:54:29.189Z,45.30
2022-07-26T16:57:33.850Z,45.40
2022-07-26T17:00:38.295Z,45.50
2022-07-26T17:03:41.742Z,45.00
2022-07-26T17:07:01.589Z,44.80
2022-07-26T17:10:11.778Z,44.90
2022-07-26T17:13:16.551Z,44.80
2022-07-26T17:16:24.575Z,44.60
2022-07-26T17:19:28.680Z,43.90
2022-07-26T17:22:32.211Z,44.90
2022-07-26T17:25:35.961Z,44.30
2022-07-26T17:28:40.751Z,43.80
2022-07-26T17:31:44.428Z,43.60
2022-07-26T17:34:48.185Z,43.30
2022-07-26T17:37:55.576Z,44.30
2022-07-26T17:40:59.919Z,43.20
2022-07-26T17:44:04.924Z,43.30
2022-07-26T17:47:28.015Z,43.40
2022-07-26T17:50:37.465Z,43.20
2022-07-26T17:53:42.317Z,42.50
2022-07-26T17:56:45.841Z,41.90
2022-07-26T17:59:50.704Z,42.00
2022-07-26T18:02:54.327Z,42.00
2022-07-26T18:05:58.301Z,41.80
2022-07-26T18:09:02.348Z,41.70
2022-07-26T18:12:06.852Z,43.60
2022-07-26T18:15:12.572Z,43.70
2022-07-26T18:18:16.549Z,42.70
2022-07-26T18:21:20.328Z,43.00
2022-07-26T18:24:24.172Z,42.50
2022-07-26T18:27:28.338Z,42.60
2022-07-26T18:30:33.614Z,43.10
2022-07-26T18:33:37.365Z,42.20
2022-07-26T18:36:40.915Z,42.50
2022-07-26T18:39:44.500Z,42.00
2022-07-26T18:42:48.224Z,41.50
2022-07-26T18:45:53.449Z,41.30
2022-07-26T18:48:57.061Z,41.00
2022-07-26T18:52:08.461Z,41.00
2022-07-26T18:55:14.606Z,41.10
2022-07-26T18:58:18.487Z,41.30
2022-07-26T19:01:26.532Z,41.50
2022-07-26T19:04:30.686Z,41.40
2022-07-26T19:07:35.900Z,41.10
2022-07-26T19:10:39.274Z,41.00
2022-07-26T19:13:44.160Z,41.70
2022-07-26T19:16:50.535Z,41.10
2022-07-26T19:19:54.307Z,41.30
2022-07-26T19:22:57.720Z,41.10
2022-07-26T19:26:01.307Z,41.20
2022-07-26T19:29:04.746Z,41.00
2022-07-26T19:32:10.084Z,41.90
2022-07-26T19:35:13.461Z,41.00
2022-07-26T19:38:16.840Z,41.10
2022-07-26T19:41:20.813Z,41.20
2022-07-26T19:44:24.457Z,41.20
2022-07-26T19:47:30.253Z,41.40
2022-07-26T19:50:34.216Z,41.40
2022-07-26T19:53:37.737Z,41.50
2022-07-26T19:56:41.943Z,41.30
2022-07-26T19:59:45.289Z,41.60
2022-07-26T20:02:50.731Z,42.20
2022-07-26T20:05:55.944Z,42.30
2022-07-26T20:09:03.804Z,41.70
2022-07-26T20:12:11.062Z,41.60
2022-07-26T20:15:15.025Z,42.20
2022-07-26T20:18:24.845Z,42.60
2022-07-26T20:21:28.494Z,42.70
2022-07-26T20:24:33.767Z,43.30
2022-07-26T20:27:38.322Z,42.50
2022-07-26T20:30:44.098Z,42.60
2022-07-26T20:33:49.908Z,42.60
2022-07-26T20:36:54.414Z,42.40
2022-07-26T20:39:58.977Z,42.40
2022-07-26T20:43:07.222Z,42.60
2022-07-26T20:46:11.635Z,42.60
2022-07-26T20:49:17.520Z,42.90
2022-07-26T20:52:22.170Z,43.00
2022-07-26T20:55:29.632Z,43.20
2022-07-26T20:58:33.140Z,43.70
2022-07-26T21:01:37.298Z,43.80
2022-07-26T21:04:42.710Z,43.80
2022-07-26T21:07:55.135Z,44.10
2022-07-26T21:11:02.490Z,43.90
2022-07-26T21:14:06.773Z,44.40
2022-07-26T21:17:12.240Z,45.30
2022-07-26T21:20:17.249Z,45.30
2022-07-26T21:23:20.703Z,46.00
2022-07-26T21:26:24.088Z,46.40
2022-07-26T21:29:30.098Z,47.00
2022-07-26T21:32:33.616Z,47.70
2022-07-26T21:35:38.407Z,48.90
2022-07-26T21:38:42.532Z,48.30
2022-07-26T21:41:46.755Z,48.60
2022-07-26T21:44:50.204Z,49.20
2022-07-26T21:47:54.265Z,49.30
2022-07-26T21:50:59.093Z,49.30
2022-07-26T21:54:02.481Z,49.90
2022-07-26T21:57:07.582Z,50.20
2022-07-26T22:00:13.376Z,50.80
2022-07-26T22:03:16.871Z,51.00
2022-07-26T22:06:21.702Z,51.50
2022-07-26T22:09:24.975Z,52.00
2022-07-26T22:12:31.591Z,52.30
2022-07-26T22:15:36.089Z,53.80
2022-07-26T22:18:39.691Z,53.20
2022-07-26T22:21:44.604Z,53.70
2022-07-26T22:24:48.135Z,53.90
2022-07-26T22:27:51.821Z,53.90
2022-07-26T22:30:56.087Z,54.00
2022-07-26T22:33:59.475Z,54.40
2022-07-26T22:37:04.203Z,54.70
2022-07-26T22:40:09.639Z,56.10
2022-07-26T22:43:14.509Z,55.60
2022-07-26T22:46:18.800Z,55.60
2022-07-26T22:49:31.521Z,55.80
2022-07-26T22:52:36.597Z,56.10
2022-07-26T22:55:40.144Z,56.70
2022-07-26T22:58:43.566Z,56.60
2022-07-26T23:01:51.453Z,56.90
2022-07-26T23:04:55.275Z,57.70
2022-07-26T23:08:03.625Z,57.60
2022-07-26T23:11:07.751Z,57.90
2022-07-26T23:14:12.743Z,58.10
2022-07-26T23:17:16.157Z,58.50
2022-07-26T23:20:19.509Z,58.50
2022-07-26T23:23:29.320Z,58.40
2022-07-26T23:26:33.476Z,58.40
2022-07-26T23:29:36.957Z,59.20
2022-07-26T23:32:41.707Z,58.60
2022-07-26T23:35:45.033Z,57.70
2022-07-26T23:38:49.777Z,57.60
2022-07-26T23:41:53.001Z,57.50
2022-07-26T23:44:56.453Z,57.40
2022-07-26T23:48:01.697Z,58.00
2022-07-26T23:51:07.399Z,57.50
2022-07-26T23:54:12.047Z,57.40
2022-07-26T23:57:15.487Z,57.40
